Time;durP1;ratioP1;P1;durP2;ratioP2;P2;SDS_P1;SDS_P2;PMS_P1;PMS_P2;Temp;Humidity;BMP_temperature;BMP_pressure;BME280_temperature;BME280_humidity;BME280_pressure;Samples;Min_cycle;Max_cycle;Signal;HPM_P1;HPM_P2
2021/08/02 00:01:34;;;;;;;;;3.00;2.00;;;;;22.49;46.30;100817.75;5058705;28;45889;-58
2021/08/02 00:04:04;;;;;;;;;1.00;1.00;;;;;22.49;46.28;100814.16;5059241;28;45351;-58
2021/08/02 00:06:48;;;;;;;;;1.00;1.00;;;;;22.51;46.04;100814.94;5059333;28;45230;-58
2021/08/02 00:09:16;;;;;;;;;1.00;1.00;;;;;22.50;46.14;100815.91;5060481;28;47226;-58
2021/08/02 00:11:49;;;;;;;;;2.00;2.00;;;;;22.49;46.62;100815.03;5059496;28;45347;-58
2021/08/02 00:14:17;;;;;;;;;1.67;1.67;;;;;22.46;46.76;100811.66;5057769;28;45608;-58
2021/08/02 00:16:43;;;;;;;;;1.00;1.00;;;;;22.48;46.63;100812.41;5060101;28;45701;-58
2021/08/02 00:19:09;;;;;;;;;2.00;2.00;;;;;22.47;46.83;100808.84;5048319;28;48801;-58
2021/08/02 00:21:35;;;;;;;;;2.00;2.00;;;;;22.47;46.65;100813.38;5060268;27;45469;-58
2021/08/02 00:24:01;;;;;;;;;2.00;2.00;;;;;22.43;46.51;100809.19;5060531;27;45368;-59
2021/08/02 00:26:27;;;;;;;;;2.33;1.33;;;;;22.43;46.55;100809.19;5060317;28;45596;-58
2021/08/02 00:28:55;;;;;;;;;2.00;2.00;;;;;22.42;46.62;100807.44;5060390;28;48148;-58
2021/08/02 00:31:20;;;;;;;;;3.00;2.00;;;;;22.40;46.87;100812.09;5056098;28;45630;-58
2021/08/02 00:33:46;;;;;;;;;2.67;2.00;;;;;22.35;47.05;100812.41;5059490;28;45345;-58
2021/08/02 00:36:17;;;;;;;;;2.00;2.00;;;;;22.36;46.92;100815.97;5060714;28;45529;-58
2021/08/02 00:38:51;;;;;;;;;1.00;1.00;;;;;22.32;46.71;100815.31;5049591;28;47892;-58
2021/08/02 00:41:59;;;;;;;;;4.00;3.00;;;;;22.31;47.00;100814.47;5057547;28;46080;-58
2021/08/02 00:44:33;;;;;;;;;3.00;2.00;;;;;22.31;47.38;100810.88;5033814;28;45510;-58
2021/08/02 00:47:09;;;;;;;;;2.00;2.00;;;;;22.29;47.54;100815.53;5024495;28;45805;-58
2021/08/02 00:49:44;;;;;;;;;2.00;2.00;;;;;22.27;47.20;100817.50;5042274;28;47482;-58
2021/08/02 00:52:10;;;;;;;;;1.00;1.00;;;;;22.26;47.59;100813.91;5060347;28;45361;-58
2021/08/02 00:54:38;;;;;;;;;3.00;3.00;;;;;22.25;46.88;100814.91;5058080;28;45314;-58
2021/08/02 00:57:04;;;;;;;;;3.00;2.00;;;;;22.25;47.20;100816.72;5079017;27;45606;-58
2021/08/02 00:59:31;;;;;;;;;1.00;1.00;;;;;22.24;47.07;100812.31;5058643;28;47328;-58
2021/08/02 01:01:59;;;;;;;;;2.00;2.00;;;;;22.23;47.82;100816.84;5059296;28;45900;-58
2021/08/02 01:04:27;;;;;;;;;2.33;2.33;;;;;22.21;47.62;100816.06;5063159;28;45365;-58
2021/08/02 01:06:55;;;;;;;;;1.00;1.00;;;;;22.19;47.47;100817.13;5060325;28;45523;-58
2021/08/02 01:09:21;;;;;;;;;1.67;1.67;;;;;22.16;47.58;100818.22;5053291;28;47317;-58
2021/08/02 01:11:49;;;;;;;;;7.00;5.33;;;;;22.12;47.75;100815.84;5061413;27;45463;-58
2021/08/02 01:14:17;;;;;;;;;2.00;2.00;;;;;22.08;47.89;100811.59;5063670;28;45373;-58
2021/08/02 01:16:44;;;;;;;;;2.67;2.33;;;;;22.05;47.88;100818.03;5061810;28;45404;-58
2021/08/02 01:19:11;;;;;;;;;4.67;4.00;;;;;22.02;47.83;100815.56;5061127;28;47487;-59
2021/08/02 01:21:39;;;;;;;;;4.00;4.00;;;;;21.99;48.46;100811.25;5058245;28;45832;-58
2021/08/02 01:24:13;;;;;;;;;2.67;2.67;;;;;22.00;48.23;100814.81;5063204;27;45508;-58
2021/08/02 01:26:44;;;;;;;;;3.00;3.00;;;;;21.99;48.67;100821.19;5057975;27;45495;-58
2021/08/02 01:29:47;;;;;;;;;3.67;3.67;;;;;21.99;48.17;100823.88;5057649;28;49003;-58
2021/08/02 01:32:14;;;;;;;;;3.00;3.00;;;;;21.93;48.84;100819.75;5055841;28;45423;-58
2021/08/02 01:34:40;;;;;;;;;5.00;4.00;;;;;21.92;48.49;100826.13;5057919;28;45366;-58
2021/08/02 01:37:05;;;;;;;;;3.33;3.33;;;;;21.93;49.12;100819.75;5061440;27;45607;-58
2021/08/02 01:39:32;;;;;;;;;3.33;3.00;;;;;21.89;48.58;100815.53;5077806;27;48334;-58
2021/08/02 01:41:58;;;;;;;;;2.67;2.67;;;;;21.87;48.52;100819.31;5062213;27;45457;-58
2021/08/02 01:44:24;;;;;;;;;3.00;3.00;;;;;21.86;48.89;100821.13;5061921;28;45496;-58
2021/08/02 01:46:58;;;;;;;;;4.67;3.67;;;;;21.87;48.82;100819.31;5061946;28;46592;-58
2021/08/02 01:49:34;;;;;;;;;2.67;2.67;;;;;21.87;48.79;100816.59;5058908;28;45496;-58
2021/08/02 01:52:00;;;;;;;;;5.00;4.00;;;;;21.88;49.03;100815.63;5054386;28;45345;-58
2021/08/02 01:54:40;;;;;;;;;4.00;4.00;;;;;21.89;49.31;100811.97;5053645;28;45574;-58
2021/08/02 01:57:10;;;;;;;;;4.67;4.67;;;;;21.89;49.25;100811.97;5053074;28;45574;-58
2021/08/02 01:59:41;;;;;;;;;3.00;3.00;;;;;21.87;48.93;100824.72;5055146;28;47512;-58
2021/08/02 02:02:10;;;;;;;;;3.00;3.00;;;;;21.84;49.11;100816.78;5055738;28;45455;-58
2021/08/02 02:04:39;;;;;;;;;4.00;2.33;;;;;21.77;49.11;100824.44;5062304;28;45341;-58
2021/08/02 02:07:05;;;;;;;;;3.33;2.67;;;;;21.72;49.39;100821.16;5059290;28;45607;-58
2021/08/02 02:09:35;;;;;;;;;3.67;3.67;;;;;21.66;49.93;100827.00;5062684;27;47516;-58
2021/08/02 02:12:03;;;;;;;;;3.00;3.00;;;;;21.64;49.35;100824.41;5060923;28;45368;-58
2021/08/02 02:14:33;;;;;;;;;4.00;4.00;;;;;21.63;49.99;100821.78;5060962;28;45696;-58
2021/08/02 02:17:02;;;;;;;;;5.00;4.00;;;;;21.59;49.89;100818.41;5063082;28;45471;-58
2021/08/02 02:19:29;;;;;;;;;3.67;3.00;;;;;21.58;49.64;100813.13;5054495;28;48179;-58
2021/08/02 02:21:57;;;;;;;;;3.67;3.67;;;;;21.57;50.28;100809.53;5056011;28;45428;-58
2021/08/02 02:24:24;;;;;;;;;4.00;4.00;;;;;21.58;50.35;100816.69;5056712;28;45383;-58
2021/08/02 02:26:52;;;;;;;;;4.67;4.00;;;;;21.57;50.01;100814.09;5048123;28;45751;-59
2021/08/02 02:29:19;;;;;;;;;4.00;4.00;;;;;21.53;50.22;100816.13;5057955;28;47726;-58
2021/08/02 02:31:47;;;;;;;;;5.00;4.33;;;;;21.50;50.71;100818.16;5073865;28;45389;-57
2021/08/02 02:34:15;;;;;;;;;4.67;4.00;;;;;21.48;50.55;100814.72;5058910;28;45618;-58
2021/08/02 02:36:41;;;;;;;;;5.33;5.33;;;;;21.47;50.94;100813.84;5057562;28;45491;-58
2021/08/02 02:39:07;;;;;;;;;6.00;6.00;;;;;21.44;50.55;100816.72;5054953;28;47390;-58
2021/08/02 02:41:33;;;;;;;;;4.33;4.33;;;;;21.40;50.40;100812.50;5055317;28;45380;-58
2021/08/02 02:44:01;;;;;;;;;4.33;4.33;;;;;21.40;50.72;100820.59;5058020;28;45482;-58
2021/08/02 02:46:28;;;;;;;;;5.00;5.00;;;;;21.38;50.88;100820.69;5058654;28;45334;-58
2021/08/02 02:48:56;;;;;;;;;6.67;5.33;;;;;21.38;50.54;100819.84;5056544;28;48083;-58
2021/08/02 02:51:23;;;;;;;;;5.00;5.00;;;;;21.39;50.91;100825.13;5057956;28;45393;-58
2021/08/02 02:53:50;;;;;;;;;6.00;6.00;;;;;21.38;50.96;100822.53;5057978;28;45595;-58
2021/08/02 02:56:18;;;;;;;;;3.33;3.33;;;;;21.33;50.70;100828.22;5055787;27;45559;-58
2021/08/02 02:58:44;;;;;;;;;5.33;5.33;;;;;21.32;51.23;100814.81;5054708;28;47341;-58
2021/08/02 03:01:13;;;;;;;;;6.00;5.00;;;;;21.31;50.65;100819.34;5057414;28;47025;-58
2021/08/02 03:03:45;;;;;;;;;5.33;4.00;;;;;21.30;51.21;100820.31;5060553;28;45295;-58
2021/08/02 03:06:12;;;;;;;;;6.67;6.33;;;;;21.28;51.44;100818.69;5061452;28;45539;-58
2021/08/02 03:08:38;;;;;;;;;5.67;4.67;;;;;21.25;51.21;100819.75;5058047;28;47230;-58
2021/08/02 03:11:05;;;;;;;;;5.00;5.00;;;;;21.25;51.13;100825.16;5059912;28;45396;-58
2021/08/02 03:13:31;;;;;;;;;5.33;5.33;;;;;21.23;51.56;100816.28;5050560;28;45525;-58
2021/08/02 03:15:57;;;;;;;;;4.67;4.67;;;;;21.23;51.05;100818.09;5059853;28;45306;-58
2021/08/02 03:18:23;;;;;;;;;3.00;3.00;;;;;21.23;51.36;100812.72;5058763;28;46967;-58
2021/08/02 03:20:48;;;;;;;;;4.67;4.67;;;;;21.22;51.71;100825.34;5059949;28;45460;-58
2021/08/02 03:23:26;;;;;;;;;6.00;4.00;;;;;21.22;51.51;100824.47;5055859;28;45622;-58
2021/08/02 03:26:23;;;;;;;;;6.00;5.00;;;;;21.22;51.74;100822.63;5059279;28;45503;-58
2021/08/02 03:28:56;;;;;;;;;6.00;6.00;;;;;21.19;51.99;100819.25;5060179;28;46827;-58
2021/08/02 03:31:36;;;;;;;;;5.33;5.33;;;;;21.17;51.49;100822.03;5053675;28;45746;-58
2021/08/02 03:34:06;;;;;;;;;5.67;5.67;;;;;21.17;51.78;100828.31;5055012;28;45619;-57
2021/08/02 03:36:32;;;;;;;;;4.00;4.00;;;;;21.16;52.10;100828.41;5061849;28;45514;-58
2021/08/02 03:38:58;;;;;;;;;5.00;5.00;;;;;21.14;52.17;100833.91;5054573;28;48014;-58
2021/08/02 03:41:24;;;;;;;;;5.33;5.33;;;;;21.14;52.16;100842.00;5048506;28;45323;-59
2021/08/02 03:43:50;;;;;;;;;6.33;4.33;;;;;21.15;52.40;100832.06;5059629;28;45393;-58
2021/08/02 03:46:18;;;;;;;;;3.33;3.33;;;;;21.16;52.02;100833.81;5060878;28;45555;-58
2021/08/02 03:48:44;;;;;;;;;5.00;4.67;;;;;21.17;51.88;100832.84;5051703;28;47797;-58
2021/08/02 03:51:10;;;;;;;;;7.67;5.00;;;;;21.20;52.01;100834.47;5059848;28;45305;-58
2021/08/02 03:53:44;;;;;;;;;6.00;6.00;;;;;21.21;51.77;100841.59;5056429;28;45413;-58
2021/08/02 03:56:12;;;;;;;;;4.00;4.00;;;;;21.20;51.73;100840.72;5064780;28;45408;-58
2021/08/02 03:58:38;;;;;;;;;6.00;5.00;;;;;21.21;51.78;100845.16;5056509;28;46794;-58
2021/08/02 04:01:04;;;;;;;;;4.00;4.00;;;;;21.22;51.93;100851.47;5060353;28;45607;-58
2021/08/02 04:03:29;;;;;;;;;4.33;4.33;;;;;21.20;52.03;100847.97;5055177;28;45426;-58
2021/08/02 04:05:57;;;;;;;;;4.33;4.33;;;;;21.19;52.27;100848.94;5058728;28;45295;-58
2021/08/02 04:08:23;;;;;;;;;7.00;7.00;;;;;21.17;52.67;100846.34;5059301;28;47084;-58
2021/08/02 04:10:49;;;;;;;;;4.00;4.00;;;;;21.16;52.22;100861.66;5088220;27;46472;-58
2021/08/02 04:13:17;;;;;;;;;5.67;4.67;;;;;21.13;52.08;100851.06;5059792;27;45296;-58
2021/08/02 04:15:43;;;;;;;;;4.67;4.67;;;;;21.13;52.61;100855.59;5062262;28;45367;-58
2021/08/02 04:18:09;;;;;;;;;5.67;3.67;;;;;21.13;52.69;100866.41;5056890;28;47642;-58
2021/08/02 04:20:35;;;;;;;;;6.33;6.33;;;;;21.10;52.24;100867.47;5056568;28;45638;-58
2021/08/02 04:23:00;;;;;;;;;7.00;5.00;;;;;21.11;52.60;100871.88;5056795;28;45604;-58
2021/08/02 04:25:26;;;;;;;;;5.00;5.00;;;;;21.09;52.47;100870.25;5056987;28;45538;-58
2021/08/02 04:27:51;;;;;;;;;4.00;4.00;;;;;21.10;52.54;100874.69;5078592;27;47401;-58
2021/08/02 04:30:17;;;;;;;;;4.67;4.00;;;;;21.09;52.72;100875.66;5052344;28;45963;-58
2021/08/02 04:32:44;;;;;;;;;4.67;3.67;;;;;21.07;52.14;100878.41;5052231;28;45308;-58
2021/08/02 04:35:10;;;;;;;;;5.00;4.67;;;;;21.06;52.98;100875.81;5052542;28;45629;-58
2021/08/02 04:37:35;;;;;;;;;4.00;4.00;;;;;21.06;52.45;100875.81;5054616;28;46071;-58
2021/08/02 04:40:01;;;;;;;;;5.00;4.00;;;;;21.06;52.41;100882.09;5052927;28;45751;-58
2021/08/02 04:42:26;;;;;;;;;5.00;5.00;;;;;21.03;52.52;100879.59;5055210;28;45468;-57
2021/08/02 04:44:52;;;;;;;;;5.00;5.00;;;;;21.02;52.87;100880.56;5055993;28;45521;-57
2021/08/02 04:47:17;;;;;;;;;2.00;2.00;;;;;21.02;53.27;100871.59;5056481;28;48111;-57
2021/08/02 04:49:42;;;;;;;;;3.33;3.00;;;;;21.01;53.06;100870.72;5048564;28;45877;-58
2021/08/02 04:52:08;;;;;;;;;3.00;3.00;;;;;21.00;52.78;100873.53;5056121;28;45668;-58
2021/08/02 04:54:33;;;;;;;;;3.33;3.33;;;;;20.99;53.29;100875.34;5056723;28;45704;-57
2021/08/02 04:56:59;;;;;;;;;4.67;3.67;;;;;20.98;53.04;100881.72;5055997;28;48268;-58
2021/08/02 04:59:24;;;;;;;;;4.33;4.33;;;;;20.97;53.35;100863.81;5056185;28;45907;-58
2021/08/02 05:01:50;;;;;;;;;3.67;3.67;;;;;20.98;53.26;100875.47;5047124;28;45450;-57
2021/08/02 05:04:15;;;;;;;;;3.00;3.00;;;;;20.96;53.42;100877.34;5067833;28;45635;-57
2021/08/02 05:06:41;;;;;;;;;4.67;4.00;;;;;20.96;53.21;100878.25;5055655;28;48488;-58
2021/08/02 05:09:06;;;;;;;;;3.67;3.67;;;;;20.97;53.53;100881.81;5046693;28;45791;-57
2021/08/02 05:11:32;;;;;;;;;4.33;4.33;;;;;20.97;53.43;100873.72;5048653;28;45405;-58
2021/08/02 05:13:57;;;;;;;;;7.00;7.00;;;;;20.97;53.71;100882.69;5055551;28;45601;-57
2021/08/02 05:16:23;;;;;;;;;3.00;3.00;;;;;20.99;53.53;100879.88;5057665;28;48037;-58
2021/08/02 05:18:49;;;;;;;;;5.00;5.00;;;;;21.01;53.20;100889.63;5050228;28;45520;-58
2021/08/02 05:21:14;;;;;;;;;3.00;2.67;;;;;21.03;53.59;100887.69;5044441;28;45364;-58
2021/08/02 05:23:40;;;;;;;;;5.00;5.00;;;;;21.04;53.69;100886.72;5047191;28;45296;-57
2021/08/02 05:26:05;;;;;;;;;5.00;3.33;;;;;21.08;53.30;100885.56;5050731;28;46537;-58
2021/08/02 05:28:31;;;;;;;;;4.00;4.00;;;;;21.11;53.37;100885.38;5075103;27;45702;-58
2021/08/02 05:30:56;;;;;;;;;6.67;6.67;;;;;21.15;53.13;100886.06;5052339;28;45416;-58
2021/08/02 05:33:22;;;;;;;;;3.00;3.00;;;;;21.19;53.13;100898.38;5052607;28;47525;-58
2021/08/02 05:35:47;;;;;;;;;3.67;3.67;;;;;21.25;53.34;100895.34;5057885;28;48172;-58
2021/08/02 05:38:12;;;;;;;;;5.00;5.00;;;;;21.28;53.23;100899.66;5089687;27;45659;-58
2021/08/02 05:40:38;;;;;;;;;3.00;3.00;;;;;21.31;52.93;100897.63;5047323;28;45524;-57
2021/08/02 05:43:04;;;;;;;;;5.00;4.33;;;;;21.31;53.15;100900.34;5046129;28;45500;-58
2021/08/02 05:45:29;;;;;;;;;4.00;4.00;;;;;21.35;53.05;100901.03;5048233;28;47168;-58
2021/08/02 05:47:55;;;;;;;;;5.33;5.33;;;;;21.36;52.83;100895.53;5054401;28;46042;-57
2021/08/02 05:50:22;;;;;;;;;4.33;4.00;;;;;21.40;52.86;100904.28;5049902;28;45499;-57
2021/08/02 05:52:47;;;;;;;;;6.33;6.33;;;;;21.44;53.00;100905.81;5057387;28;45691;-57
2021/08/02 05:55:13;;;;;;;;;8.00;7.00;;;;;21.47;53.31;100905.66;5050467;28;46371;-57
2021/08/02 05:57:39;;;;;;;;;4.00;4.00;;;;;21.51;53.30;100909.00;5044371;28;45470;-59
2021/08/02 06:00:06;;;;;;;;;5.00;4.00;;;;;21.54;53.08;100911.50;5051074;28;45325;-57
2021/08/02 06:02:32;;;;;;;;;6.33;6.33;;;;;21.58;52.89;100913.91;5048837;28;45448;-57
2021/08/02 06:04:57;;;;;;;;;4.00;4.00;;;;;21.60;52.35;100912.00;5048649;28;47305;-57
2021/08/02 06:07:23;;;;;;;;;3.00;3.00;;;;;21.62;52.42;100914.59;5058005;28;45449;-57
2021/08/02 06:09:49;;;;;;;;;3.00;3.00;;;;;21.65;52.79;100909.84;5056571;28;45687;-57
2021/08/02 06:12:15;;;;;;;;;4.67;4.67;;;;;21.66;52.27;100916.97;5050834;28;45456;-57
2021/08/02 06:14:40;;;;;;;;;6.00;6.00;;;;;21.67;52.87;100917.84;5055451;28;47194;-58
2021/08/02 06:17:05;;;;;;;;;5.00;4.67;;;;;21.68;52.78;100908.78;5048885;28;45821;-58
2021/08/02 06:19:31;;;;;;;;;3.00;3.00;;;;;21.70;52.72;100910.41;5048238;28;45503;-57
2021/08/02 06:21:57;;;;;;;;;4.33;4.00;;;;;21.73;52.84;100909.38;5045362;28;45635;-57
2021/08/02 06:24:22;;;;;;;;;4.00;4.00;;;;;21.77;52.56;100910.91;5047753;28;46710;-57
2021/08/02 06:26:47;;;;;;;;;5.00;4.00;;;;;21.80;52.52;100916.09;5081848;27;45499;-57
2021/08/02 06:29:14;;;;;;;;;4.67;4.67;;;;;21.84;52.53;100920.31;5057908;28;45285;-57
2021/08/02 06:31:39;;;;;;;;;7.00;4.33;;;;;21.87;52.51;100922.84;5051706;28;45346;-56
2021/08/02 06:34:05;;;;;;;;;4.00;4.00;;;;;21.90;52.09;100916.34;5061446;28;48264;-57
2021/08/02 06:36:30;;;;;;;;;5.00;5.00;;;;;21.95;51.81;100920.47;5056796;28;45355;-57
2021/08/02 06:38:56;;;;;;;;;4.67;4.00;;;;;21.98;51.79;100924.84;5057094;28;45614;-57
2021/08/02 06:41:21;;;;;;;;;3.33;3.33;;;;;22.00;51.68;100925.59;5059655;28;45281;-58
2021/08/02 06:43:47;;;;;;;;;5.00;5.00;;;;;22.02;51.59;100920.97;5055928;28;47324;-58
2021/08/02 06:46:12;;;;;;;;;5.00;5.00;;;;;22.05;51.79;100926.16;5059188;28;46516;-57
2021/08/02 06:48:40;;;;;;;;;4.67;4.67;;;;;22.06;51.84;100925.22;5047845;28;47035;-57
2021/08/02 06:51:05;;;;;;;;;5.33;5.33;;;;;22.12;51.39;100929.38;5057699;28;45488;-57
2021/08/02 06:53:31;;;;;;;;;6.00;5.00;;;;;22.14;51.50;100924.72;5049598;28;47191;-57
2021/08/02 06:55:56;;;;;;;;;5.67;5.67;;;;;22.16;51.45;100930.88;5061039;28;45887;-58
2021/08/02 06:58:22;;;;;;;;;5.33;5.33;;;;;22.19;50.95;100930.66;5055139;28;45906;-58
2021/08/02 07:00:47;;;;;;;;;4.00;4.00;;;;;22.20;50.96;100927.00;5053570;28;45878;-58
2021/08/02 07:03:12;;;;;;;;;12.67;10.33;;;;;22.24;51.34;100932.13;5060728;28;46519;-57
2021/08/02 07:05:38;;;;;;;;;6.00;6.00;;;;;22.28;51.44;100938.19;5061958;28;45483;-58
2021/08/02 07:08:04;;;;;;;;;7.33;5.00;;;;;22.26;50.83;100932.00;5042648;28;45455;-58
2021/08/02 07:10:30;;;;;;;;;4.33;1.00;;;;;22.23;51.25;100927.69;5061377;28;45529;-58
2021/08/02 07:12:55;;;;;;;;;6.67;6.00;;;;;22.28;50.81;100935.47;5052503;28;48455;-58
2021/08/02 07:15:21;;;;;;;;;5.00;5.00;;;;;22.29;50.96;100932.66;5053278;28;45484;-58
2021/08/02 07:17:46;;;;;;;;;5.00;5.00;;;;;22.32;51.19;100939.69;5056879;27;45723;-58
2021/08/02 07:20:12;;;;;;;;;6.00;6.00;;;;;22.34;51.01;100929.63;5051487;28;45438;-57
2021/08/02 07:22:38;;;;;;;;;6.00;6.00;;;;;22.37;50.74;100923.19;5086733;27;48260;-57
2021/08/02 07:25:04;;;;;;;;;4.33;4.00;;;;;22.41;50.96;100935.50;5062852;28;45725;-57
2021/08/02 07:27:30;;;;;;;;;4.33;4.33;;;;;22.44;50.71;100930.75;5054236;28;45550;-57
2021/08/02 07:29:55;;;;;;;;;6.00;6.00;;;;;22.49;50.63;100930.47;5048052;28;45476;-57
2021/08/02 07:32:21;;;;;;;;;5.67;5.33;;;;;22.54;50.16;100933.72;5059910;28;47246;-57
2021/08/02 07:34:46;;;;;;;;;5.00;5.00;;;;;22.57;50.67;100933.50;5061589;28;45642;-57
2021/08/02 07:37:12;;;;;;;;;6.33;5.00;;;;;22.60;50.05;100930.56;5045574;27;45693;-57
2021/08/02 07:39:37;;;;;;;;;5.00;5.00;;;;;22.63;50.11;100930.38;5077259;27;45329;-57
2021/08/02 07:42:03;;;;;;;;;6.33;5.67;;;;;22.65;50.16;100933.84;5056426;27;47329;-58
2021/08/02 07:44:29;;;;;;;;;5.00;5.00;;;;;22.65;50.20;100932.97;5050633;28;45381;-57
2021/08/02 07:46:56;;;;;;;;;3.00;3.00;;;;;22.64;50.81;100937.53;5052721;28;45676;-57
2021/08/02 07:49:21;;;;;;;;;5.00;5.00;;;;;22.63;50.34;100930.38;5060270;28;45340;-57
2021/08/02 07:51:47;;;;;;;;;6.00;5.00;;;;;22.68;50.28;100939.03;5058577;28;47272;-57
2021/08/02 07:54:12;;;;;;;;;8.00;5.00;;;;;22.74;50.41;100940.44;5057815;28;45913;-57
2021/08/02 07:56:38;;;;;;;;;6.33;6.33;;;;;22.78;50.26;100936.56;5060676;28;45385;-58
2021/08/02 07:59:04;;;;;;;;;5.33;5.33;;;;;22.83;50.46;100929.91;5059389;28;45488;-57
2021/08/02 08:01:30;;;;;;;;;8.67;7.00;;;;;22.87;50.03;100939.56;5055591;27;47361;-57
2021/08/02 08:03:55;;;;;;;;;5.00;5.00;;;;;22.86;50.33;100945.03;5052667;28;45309;-57
2021/08/02 08:06:21;;;;;;;;;5.33;5.33;;;;;22.87;50.48;100938.69;5053442;27;45454;-57
2021/08/02 08:08:47;;;;;;;;;8.33;7.00;;;;;22.92;50.01;100933.81;5052283;28;45354;-57
2021/08/02 08:11:13;;;;;;;;;4.33;4.33;;;;;22.99;50.43;100929.69;5052123;28;47308;-57
2021/08/02 08:13:39;;;;;;;;;4.67;4.67;;;;;23.06;50.53;100933.69;5059519;27;45302;-57
2021/08/02 08:16:05;;;;;;;;;4.00;4.00;;;;;23.14;50.03;100931.34;5050444;28;45571;-61
2021/08/02 08:18:31;;;;;;;;;6.33;5.67;;;;;23.17;49.83;100936.53;5052399;28;45547;-58
2021/08/02 08:21:01;;;;;;;;;5.00;5.00;;;;;23.22;50.06;100938.91;5068964;27;48278;-57
2021/08/02 08:23:29;;;;;;;;;7.00;6.00;;;;;23.27;49.50;100928.63;5054207;27;45663;-56
2021/08/02 08:25:54;;;;;;;;;6.00;6.00;;;;;23.31;49.63;100932.84;5047406;28;45826;-57
2021/08/02 08:28:20;;;;;;;;;4.00;4.00;;;;;23.36;49.68;100929.78;5050455;28;45310;-57
2021/08/02 08:30:45;;;;;;;;;6.00;5.00;;;;;23.39;49.39;100930.44;5045089;28;46732;-57
2021/08/02 08:33:11;;;;;;;;;8.00;7.00;;;;;23.45;49.53;100929.13;5052241;28;45471;-57
2021/08/02 08:35:37;;;;;;;;;3.33;3.33;;;;;23.46;49.09;100926.31;5053081;28;45602;-57
2021/08/02 08:38:07;;;;;;;;;4.33;4.00;;;;;23.50;49.23;100926.94;5056176;28;45542;-57
2021/08/02 08:40:34;;;;;;;;;6.33;6.00;;;;;23.53;49.16;100928.59;5058914;28;47268;-57
2021/08/02 08:42:59;;;;;;;;;6.00;6.00;;;;;23.55;48.63;100927.50;5056039;28;45440;-57
2021/08/02 08:45:25;;;;;;;;;3.67;3.00;;;;;23.55;49.09;100921.22;5051753;28;45501;-57
2021/08/02 08:47:51;;;;;;;;;6.00;6.00;;;;;23.59;48.70;100929.03;5057205;28;45341;-57
2021/08/02 08:50:18;;;;;;;;;3.00;3.00;;;;;23.61;48.81;100921.66;5059065;28;48419;-57
2021/08/02 08:52:45;;;;;;;;;8.33;5.00;;;;;23.63;48.56;100929.66;5054473;28;45666;-56
2021/08/02 08:55:13;;;;;;;;;6.00;4.33;;;;;23.62;48.51;100925.22;5049073;28;45733;-57
2021/08/02 08:57:39;;;;;;;;;5.67;5.67;;;;;23.63;48.67;100925.13;5057432;28;45519;-58
2021/08/02 09:00:17;;;;;;;;;6.00;6.00;;;;;23.66;48.49;100926.75;5060627;28;48411;-57
2021/08/02 09:02:43;;;;;;;;;3.33;3.33;;;;;23.70;48.34;100930.97;5059842;28;45393;-56
2021/08/02 09:05:09;;;;;;;;;4.00;4.00;;;;;23.70;48.02;100929.13;5050664;27;45349;-57
2021/08/02 09:07:40;;;;;;;;;7.33;6.00;;;;;23.70;47.76;100928.25;5057193;28;45675;-57
2021/08/02 09:10:18;;;;;;;;;4.00;4.00;;;;;23.70;48.11;100933.66;5054744;28;48057;-56
2021/08/02 09:12:57;;;;;;;;;3.67;3.67;;;;;23.72;47.99;100931.72;5060533;28;45351;-58
2021/08/02 09:15:36;;;;;;;;;4.00;4.00;;;;;23.76;48.05;100942.22;5053235;28;45383;-57
2021/08/02 09:18:04;;;;;;;;;5.00;5.00;;;;;23.81;48.04;100935.59;5051358;28;45358;-57
2021/08/02 09:20:30;;;;;;;;;5.00;5.00;;;;;23.87;48.08;100935.13;5061487;28;48331;-57
2021/08/02 09:23:05;;;;;;;;;4.67;4.67;;;;;23.90;47.85;100937.63;5066753;28;45630;-57
2021/08/02 09:25:31;;;;;;;;;4.33;4.33;;;;;23.89;48.09;100935.91;5055010;28;45448;-56
2021/08/02 09:27:56;;;;;;;;;5.00;5.00;;;;;23.91;47.55;100931.25;5056729;28;45816;-58
2021/08/02 09:30:24;;;;;;;;;4.00;4.00;;;;;23.88;47.69;100936.84;5057499;28;47347;-59
2021/08/02 09:32:54;;;;;;;;;5.00;5.00;;;;;23.85;47.49;100931.69;5047655;28;45417;-59
2021/08/02 09:35:31;;;;;;;;;4.00;4.00;;;;;23.86;47.73;100931.56;5058029;28;45773;-59
2021/08/02 09:38:00;;;;;;;;;4.33;4.00;;;;;23.87;47.67;100927.88;5052510;28;45907;-59
2021/08/02 09:40:25;;;;;;;;;4.00;4.00;;;;;23.92;47.79;100931.13;5046522;28;48277;-57
2021/08/02 09:42:57;;;;;;;;;4.67;3.33;;;;;24.00;47.36;100927.81;5046304;28;45455;-58
2021/08/02 09:45:25;;;;;;;;;3.00;3.00;;;;;24.08;47.23;100936.25;5046275;28;45271;-58
2021/08/02 09:47:51;;;;;;;;;3.00;3.00;;;;;24.08;46.91;100930.84;5054329;28;45330;-58
2021/08/02 09:50:27;;;;;;;;;5.00;3.00;;;;;24.11;46.36;100938.72;5049458;27;47229;-58
2021/08/02 09:52:53;;;;;;;;;1.67;1.67;;;;;24.16;46.39;100925.72;5083703;27;45522;-58
2021/08/02 09:55:21;;;;;;;;;3.00;3.00;;;;;24.21;46.08;100925.38;5056948;28;45730;-58
2021/08/02 09:57:50;;;;;;;;;4.33;3.00;;;;;24.24;45.91;100925.97;5051993;28;45525;-58
2021/08/02 10:00:17;;;;;;;;;4.00;4.00;;;;;24.27;46.33;100919.50;5079442;27;47451;-58
2021/08/02 10:02:43;;;;;;;;;4.00;3.00;;;;;24.31;46.06;100929.16;5054374;28;45813;-58
2021/08/02 10:05:09;;;;;;;;;4.00;3.33;;;;;24.33;45.66;100922.63;5052952;28;45885;-58
2021/08/02 10:07:35;;;;;;;;;3.33;3.33;;;;;24.36;45.46;100907.94;5045655;28;45640;-59
2021/08/02 10:10:02;;;;;;;;;3.33;3.00;;;;;24.42;45.15;100918.34;5049516;28;47913;-59
2021/08/02 10:12:44;;;;;;;;;2.00;2.00;;;;;24.51;45.56;100914.91;5052028;27;46006;-58
2021/08/02 10:15:18;;;;;;;;;3.33;3.00;;;;;24.59;45.31;100914.34;5053662;28;45511;-58
2021/08/02 10:17:51;;;;;;;;;6.33;3.67;;;;;24.65;44.71;100911.16;5052337;28;45398;-58
2021/08/02 10:20:28;;;;;;;;;3.33;3.33;;;;;24.69;45.03;100909.94;5051962;28;48860;-58
2021/08/02 10:22:55;;;;;;;;;5.00;4.33;;;;;24.70;44.52;100913.50;5058215;28;45812;-58
2021/08/02 10:25:34;;;;;;;;;3.67;3.33;;;;;24.66;44.45;100907.47;5062437;28;45475;-59
2021/08/02 10:28:17;;;;;;;;;2.67;2.67;;;;;24.67;44.16;100913.75;5057338;28;45511;-60
2021/08/02 10:30:47;;;;;;;;;2.67;2.67;;;;;24.67;44.11;100920.03;5054480;28;47149;-58
2021/08/02 10:33:13;;;;;;;;;4.00;4.00;;;;;24.68;44.83;100915.47;5054937;28;45598;-58
2021/08/02 10:35:44;;;;;;;;;3.33;3.33;;;;;24.69;44.63;100912.66;5053480;28;45554;-59
2021/08/02 10:38:14;;;;;;;;;2.33;2.33;;;;;24.74;44.07;100915.00;5059615;28;47004;-59
2021/08/02 10:40:57;;;;;;;;;2.67;2.67;;;;;24.73;43.66;100914.13;5057284;28;48408;-57
2021/08/02 10:43:29;;;;;;;;;3.00;3.00;;;;;24.73;43.62;100913.25;5068840;27;45352;-58
2021/08/02 10:45:56;;;;;;;;;5.00;3.00;;;;;24.71;43.69;100904.38;5052114;28;45437;-59
2021/08/02 10:48:26;;;;;;;;;3.67;3.67;;;;;24.74;43.43;100912.28;5055750;28;45332;-58
2021/08/02 10:50:52;;;;;;;;;3.33;3.33;;;;;24.74;43.42;100905.00;5048800;28;47488;-57
2021/08/02 10:53:18;;;;;;;;;3.00;3.00;;;;;24.76;44.08;100908.44;5057053;28;45358;-59
2021/08/02 10:55:47;;;;;;;;;2.67;2.67;;;;;24.74;43.46;100899.56;5054493;28;45586;-59
2021/08/02 10:58:24;;;;;;;;;3.00;3.00;;;;;24.73;43.44;100905.97;5052293;28;45329;-57
2021/08/02 11:01:04;;;;;;;;;4.67;3.67;;;;;24.71;43.71;100910.66;5061296;28;48716;-60
2021/08/02 11:03:40;;;;;;;;;3.00;3.00;;;;;24.71;43.72;100907.09;5067663;27;45575;-57
2021/08/02 11:06:07;;;;;;;;;2.00;2.00;;;;;24.71;43.55;100910.66;5056967;28;45812;-58
2021/08/02 11:08:35;;;;;;;;;3.00;2.00;;;;;24.74;43.25;100907.72;5052484;28;45408;-58
2021/08/02 11:11:04;;;;;;;;;2.00;2.00;;;;;24.76;43.32;100904.88;5049087;28;47383;-58
2021/08/02 11:13:30;;;;;;;;;3.67;3.00;;;;;24.77;43.06;100912.03;5054257;28;45666;-58
2021/08/02 11:15:56;;;;;;;;;2.33;2.33;;;;;24.76;42.63;100910.31;5056626;28;45313;-58
2021/08/02 11:18:24;;;;;;;;;2.67;2.67;;;;;24.74;42.89;100912.28;5056177;28;45319;-58
2021/08/02 11:20:49;;;;;;;;;3.33;3.33;;;;;24.70;42.45;100905.38;5062017;28;46894;-58
2021/08/02 11:23:15;;;;;;;;;4.67;3.67;;;;;24.66;42.66;100907.47;5049562;28;45408;-58
2021/08/02 11:25:40;;;;;;;;;3.33;3.33;;;;;24.61;42.88;100899.66;5064679;27;45543;-58
2021/08/02 11:28:06;;;;;;;;;3.00;3.00;;;;;24.57;42.76;100905.44;5053785;28;45502;-58